createdAt,value
2019-05-26T00:00:27.893Z,99469.00
2019-05-26T00:03:00.351Z,99470.00
2019-05-26T00:05:33.040Z,99466.67
2019-05-26T00:08:05.418Z,99468.00
2019-05-26T00:10:37.978Z,99463.67
2019-05-26T00:13:10.383Z,99470.82
2019-05-26T00:15:43.009Z,99470.66
2019-05-26T00:18:15.373Z,99471.33
2019-05-26T00:20:47.998Z,99467.34
2019-05-26T00:23:20.378Z,99473.98
2019-05-26T00:25:52.895Z,99465.84
2019-05-26T00:28:25.275Z,99472.64
2019-05-26T00:30:59.046Z,99472.77
2019-05-26T00:33:32.966Z,99479.25
2019-05-26T00:36:05.531Z,99484.23
2019-05-26T00:38:37.921Z,99486.06
2019-05-26T00:41:10.451Z,99474.75
2019-05-26T00:43:42.809Z,99479.57
2019-05-26T00:46:15.398Z,99483.52
2019-05-26T00:48:48.940Z,99485.50
2019-05-26T00:51:21.527Z,99480.84
2019-05-26T00:53:54.099Z,99486.66
2019-05-26T00:56:26.675Z,99482.13
2019-05-26T00:58:59.063Z,99482.13
2019-05-26T01:01:31.622Z,99485.78
2019-05-26T01:04:04.224Z,99488.09
2019-05-26T01:06:36.713Z,99488.44
2019-05-26T01:09:09.587Z,99484.94
2019-05-26T01:11:42.089Z,99485.78
2019-05-26T01:14:14.608Z,99486.61
2019-05-26T01:16:47.193Z,99488.28
2019-05-26T01:19:20.682Z,99483.79
2019-05-26T01:21:53.188Z,99487.66
2019-05-26T01:24:25.565Z,99488.77
2019-05-26T01:26:58.116Z,99496.41
2019-05-26T01:29:31.204Z,99496.41
2019-05-26T01:32:03.697Z,99496.08
2019-05-26T01:34:36.249Z,99498.40
2019-05-26T01:37:08.934Z,99499.39
2019-05-26T01:39:41.379Z,99498.89
2019-05-26T01:42:13.899Z,99496.58
2019-05-26T01:44:46.258Z,99494.57
2019-05-26T01:47:18.844Z,99495.90
2019-05-26T01:49:51.302Z,99502.55
2019-05-26T01:52:25.177Z,99501.22
2019-05-26T01:54:57.631Z,99504.87
2019-05-26T01:57:30.288Z,99504.03
2019-05-26T02:00:02.751Z,99505.98
2019-05-26T02:02:35.810Z,99506.48
2019-05-26T02:05:08.488Z,99510.13
2019-05-26T02:07:41.083Z,99512.30
2019-05-26T02:10:13.553Z,99512.80
2019-05-26T02:12:46.166Z,99514.46
2019-05-26T02:15:20.151Z,99517.80
2019-05-26T02:17:52.710Z,99520.66
2019-05-26T02:20:25.240Z,99522.51
2019-05-26T02:22:57.861Z,99524.38
2019-05-26T02:25:30.247Z,99534.70
2019-05-26T02:28:02.756Z,99529.90
2019-05-26T02:30:35.204Z,99532.43
2019-05-26T02:33:07.750Z,99535.59
2019-05-26T02:35:40.239Z,99532.38
2019-05-26T02:38:12.887Z,99537.52
2019-05-26T02:40:45.209Z,99546.49
2019-05-26T02:43:17.735Z,99542.50
2019-05-26T02:45:50.180Z,99547.01
2019-05-26T02:48:22.694Z,99553.39
2019-05-26T02:50:55.131Z,99558.45
2019-05-26T02:53:27.728Z,99554.16
2019-05-26T02:56:01.801Z,99552.64
2019-05-26T02:58:34.299Z,99542.59
2019-05-26T03:01:06.658Z,99543.14
2019-05-26T03:03:39.418Z,99544.31
2019-05-26T03:06:14.068Z,99547.20
2019-05-26T03:08:48.210Z,99536.59
2019-05-26T03:11:20.888Z,99541.98
2019-05-26T03:13:56.691Z,99545.30
2019-05-26T03:16:31.631Z,99548.50
2019-05-26T03:19:05.531Z,99544.65
2019-05-26T03:21:38.259Z,99548.66
2019-05-26T03:24:12.192Z,99552.80
2019-05-26T03:26:44.557Z,99555.81
2019-05-26T03:29:17.063Z,99555.33
2019-05-26T03:31:49.525Z,99565.02
2019-05-26T03:34:22.008Z,99561.67
2019-05-26T03:36:54.617Z,99561.20
2019-05-26T03:39:43.469Z,99560.13
2019-05-26T03:42:03.235Z,99556.76
2019-05-26T03:44:35.790Z,99556.94
2019-05-26T03:47:08.165Z,99560.91
2019-05-26T03:49:40.650Z,99565.11
2019-05-26T03:52:13.097Z,99573.13
2019-05-26T03:54:45.497Z,99571.53
2019-05-26T03:57:17.939Z,99577.65
2019-05-26T03:59:50.444Z,99578.80
2019-05-26T04:02:22.807Z,99588.02
2019-05-26T04:04:55.344Z,99588.58
2019-05-26T04:07:27.743Z,99589.98
2019-05-26T04:10:05.550Z,99582.14
2019-05-26T04:12:34.451Z,99588.51
2019-05-26T04:15:08.303Z,99591.01
2019-05-26T04:17:40.805Z,99593.52
2019-05-26T04:20:13.306Z,99591.17
2019-05-26T04:22:45.733Z,99593.70
2019-05-26T04:25:18.131Z,99605.52
2019-05-26T04:27:50.481Z,99612.70
2019-05-26T04:30:24.086Z,99614.55
2019-05-26T04:32:56.491Z,99616.72
2019-05-26T04:35:28.980Z,99612.05
2019-05-26T04:38:01.381Z,99617.66
2019-05-26T04:40:33.875Z,99615.25
2019-05-26T04:43:06.312Z,99611.32
2019-05-26T04:45:38.898Z,99601.89
2019-05-26T04:48:11.320Z,99609.25
2019-05-26T04:50:43.820Z,99606.71
2019-05-26T04:53:16.278Z,99598.26
2019-05-26T04:55:48.809Z,99597.27
2019-05-26T04:58:21.235Z,99589.05
2019-05-26T05:00:53.740Z,99599.80
2019-05-26T05:03:27.344Z,99598.16
2019-05-26T05:05:59.876Z,99598.70
2019-05-26T05:08:32.337Z,99606.22
2019-05-26T05:11:04.930Z,99608.80
2019-05-26T05:13:37.338Z,99614.01
2019-05-26T05:16:09.929Z,99609.03
2019-05-26T05:18:42.380Z,99602.13
2019-05-26T05:21:14.848Z,99600.93
2019-05-26T05:23:47.280Z,99604.86
2019-05-26T05:26:19.682Z,99603.69
2019-05-26T05:28:53.646Z,99604.34
2019-05-26T05:31:26.176Z,99608.10
2019-05-26T05:33:58.549Z,99600.84
2019-05-26T05:36:31.056Z,99607.82
2019-05-26T05:39:03.615Z,99608.43
2019-05-26T05:41:36.143Z,99609.09
2019-05-26T05:44:08.534Z,99611.86
2019-05-26T05:46:41.026Z,99606.98
2019-05-26T05:49:13.403Z,99623.45
2019-05-26T05:51:45.985Z,99622.38
2019-05-26T05:54:19.096Z,99626.64
2019-05-26T05:57:03.153Z,99620.62
2019-05-26T05:59:43.604Z,99622.15
2019-05-26T06:02:16.409Z,99632.70
2019-05-26T06:04:50.523Z,99626.74
2019-05-26T06:07:23.181Z,99634.58
2019-05-26T06:09:55.681Z,99632.91
2019-05-26T06:12:33.369Z,99633.81
2019-05-26T06:15:10.386Z,99641.05
2019-05-26T06:17:42.771Z,99644.47
2019-05-26T06:20:16.534Z,99639.39
2019-05-26T06:22:49.122Z,99641.94
2019-05-26T06:25:21.506Z,99644.02
2019-05-26T06:27:55.549Z,99642.36
2019-05-26T06:30:28.090Z,99643.37
2019-05-26T06:33:01.231Z,99643.70
2019-05-26T06:35:34.285Z,99645.59
2019-05-26T06:38:07.096Z,99644.56
2019-05-26T06:40:44.240Z,99646.48
2019-05-26T06:43:17.067Z,99646.18
2019-05-26T06:45:49.529Z,99647.43
2019-05-26T06:48:22.016Z,99653.05
2019-05-26T06:50:55.891Z,99655.39
2019-05-26T06:53:28.488Z,99659.63
2019-05-26T06:56:02.097Z,99658.61
2019-05-26T06:58:34.744Z,99660.98
2019-05-26T07:01:07.294Z,99671.67
2019-05-26T07:03:39.872Z,99666.40
2019-05-26T07:06:12.225Z,99660.20
2019-05-26T07:08:44.777Z,99663.97
2019-05-26T07:11:17.231Z,99658.75
2019-05-26T07:13:49.660Z,99658.66
2019-05-26T07:16:36.811Z,99658.61
2019-05-26T07:18:57.887Z,99669.11
2019-05-26T07:21:30.256Z,99662.16
2019-05-26T07:24:02.761Z,99670.17
2019-05-26T07:26:35.151Z,99675.52
2019-05-26T07:29:08.225Z,99674.95
2019-05-26T07:31:40.594Z,99667.61
2019-05-26T07:34:14.450Z,99666.12
2019-05-26T07:36:47.287Z,99670.90
2019-05-26T07:39:20.866Z,99672.22
2019-05-26T07:42:08.654Z,99669.28
2019-05-26T07:44:28.098Z,99666.57
2019-05-26T07:47:00.185Z,99672.47
2019-05-26T07:49:32.700Z,99670.00
2019-05-26T07:52:05.297Z,99669.17
2019-05-26T07:54:37.853Z,99676.75
2019-05-26T07:57:11.652Z,99669.50
2019-05-26T07:59:44.347Z,99670.64
2019-05-26T08:02:16.799Z,99677.80
2019-05-26T08:04:52.258Z,99672.72
2019-05-26T08:07:28.487Z,99661.93
2019-05-26T08:10:06.258Z,99667.44
2019-05-26T08:12:39.966Z,99670.23
2019-05-26T08:15:12.547Z,99670.84
2019-05-26T08:17:45.038Z,99668.73
2019-05-26T08:20:17.536Z,99669.71
2019-05-26T08:22:50.020Z,99672.80
2019-05-26T08:25:27.594Z,99667.16
2019-05-26T08:27:59.972Z,99668.62
2019-05-26T08:30:32.723Z,99679.16
2019-05-26T08:33:05.183Z,99674.98
2019-05-26T08:35:37.770Z,99674.36
2019-05-26T08:38:10.136Z,99675.98
2019-05-26T08:40:43.675Z,99679.34
2019-05-26T08:43:16.782Z,99674.58
2019-05-26T08:45:51.998Z,99680.23
2019-05-26T08:48:26.060Z,99684.64
2019-05-26T08:50:58.585Z,99681.12
2019-05-26T08:53:31.072Z,99681.03
2019-05-26T08:56:03.584Z,99673.87
2019-05-26T08:58:35.976Z,99677.49
2019-05-26T09:01:08.461Z,99674.83
2019-05-26T09:03:43.630Z,99666.44
2019-05-26T09:06:17.119Z,99672.66
2019-05-26T09:08:52.457Z,99673.35
2019-05-26T09:11:28.667Z,99665.34
2019-05-26T09:14:01.147Z,99668.66
2019-05-26T09:16:34.454Z,99666.36
2019-05-26T09:19:08.941Z,99671.98
2019-05-26T09:21:43.953Z,99678.86
2019-05-26T09:24:16.197Z,99670.52
2019-05-26T09:26:48.741Z,99674.13
2019-05-26T09:29:23.308Z,99674.54
2019-05-26T09:31:55.742Z,99674.13
2019-05-26T09:34:28.251Z,99673.50
2019-05-26T09:37:00.681Z,99664.56
2019-05-26T09:39:32.944Z,99673.52
2019-05-26T09:42:05.620Z,99665.62
2019-05-26T09:44:39.710Z,99671.98
2019-05-26T09:47:14.130Z,99669.94
2019-05-26T09:49:47.519Z,99669.39
2019-05-26T09:52:20.096Z,99666.52
2019-05-26T09:54:53.466Z,99655.20
2019-05-26T09:57:25.973Z,99659.00
2019-05-26T10:00:00.609Z,99662.69
2019-05-26T10:02:33.256Z,99669.59
2019-05-26T10:05:08.108Z,99657.82
2019-05-26T10:07:43.746Z,99663.92
2019-05-26T10:10:17.898Z,99666.56
2019-05-26T10:12:50.322Z,99670.48
2019-05-26T10:15:22.602Z,99679.41
2019-05-26T10:17:54.981Z,99673.53
2019-05-26T10:20:29.238Z,99686.03
2019-05-26T10:23:01.926Z,99685.98
2019-05-26T10:25:36.032Z,99681.11
2019-05-26T10:28:08.527Z,99681.30
2019-05-26T10:30:40.909Z,99678.66
2019-05-26T10:33:13.767Z,99679.01
2019-05-26T10:35:46.154Z,99673.47
2019-05-26T10:38:18.708Z,99681.55
2019-05-26T10:40:51.145Z,99681.90
2019-05-26T10:43:23.750Z,99681.99
2019-05-26T10:45:56.294Z,99679.99
2019-05-26T10:48:28.625Z,99675.75
2019-05-26T10:51:00.879Z,99669.67
2019-05-26T10:53:33.165Z,99674.66
2019-05-26T10:56:05.383Z,99683.39
2019-05-26T10:58:37.896Z,99675.94
2019-05-26T11:01:10.342Z,99676.05
2019-05-26T11:03:42.834Z,99680.49
2019-05-26T11:06:15.257Z,99676.91
2019-05-26T11:08:47.764Z,99680.19
2019-05-26T11:11:20.531Z,99677.57
2019-05-26T11:14:02.566Z,99681.33
2019-05-26T11:16:27.345Z,99691.95
2019-05-26T11:19:02.833Z,99693.95
2019-05-26T11:21:35.531Z,99693.50
2019-05-26T11:24:08.078Z,99698.06
2019-05-26T11:26:40.444Z,99701.53
2019-05-26T11:29:13.023Z,99701.07
2019-05-26T11:31:45.188Z,99707.25
2019-05-26T11:34:17.846Z,99709.77
2019-05-26T11:36:52.551Z,99715.03
2019-05-26T11:39:27.162Z,99707.69
2019-05-26T11:42:12.317Z,99715.32
2019-05-26T11:44:33.138Z,99715.80
2019-05-26T11:47:05.517Z,99714.28
2019-05-26T11:49:37.823Z,99716.56
2019-05-26T11:52:09.996Z,99715.56
2019-05-26T11:54:43.020Z,99711.86
2019-05-26T11:57:15.486Z,99727.03
2019-05-26T11:59:49.112Z,99720.75
2019-05-26T12:02:22.734Z,99727.02
2019-05-26T12:04:56.677Z,99719.03
2019-05-26T12:07:29.156Z,99724.04
2019-05-26T12:10:02.587Z,99720.80
2019-05-26T12:12:35.503Z,99724.97
2019-05-26T12:15:11.757Z,99725.09
2019-05-26T12:17:48.094Z,99718.25
2019-05-26T12:20:20.617Z,99711.23
2019-05-26T12:22:53.067Z,99716.12
2019-05-26T12:25:25.652Z,99715.70
2019-05-26T12:27:58.022Z,99714.45
2019-05-26T12:30:31.072Z,99715.52
2019-05-26T12:33:03.809Z,99717.83
2019-05-26T12:35:41.244Z,99715.66
2019-05-26T12:38:15.471Z,99719.64
2019-05-26T12:40:49.060Z,99714.50
2019-05-26T12:43:21.465Z,99710.59
2019-05-26T12:45:54.059Z,99709.67
2019-05-26T12:48:27.611Z,99699.72
2019-05-26T12:51:01.163Z,99705.02
2019-05-26T12:53:35.388Z,99703.86
2019-05-26T12:56:08.118Z,99701.16
2019-05-26T12:58:41.176Z,99712.93
2019-05-26T13:01:13.678Z,99711.29
2019-05-26T13:03:46.125Z,99719.63
2019-05-26T13:06:18.639Z,99712.22
2019-05-26T13:08:53.250Z,99709.92
2019-05-26T13:11:26.065Z,99721.59
2019-05-26T13:13:58.426Z,99724.35
2019-05-26T13:16:30.864Z,99736.05
2019-05-26T13:19:04.882Z,99740.09
2019-05-26T13:21:40.233Z,99736.97
2019-05-26T13:24:18.514Z,99731.66
2019-05-26T13:26:49.710Z,99732.06
2019-05-26T13:29:25.517Z,99729.81
2019-05-26T13:31:56.431Z,99732.52
2019-05-26T13:34:29.555Z,99732.67
2019-05-26T13:37:03.081Z,99738.05
2019-05-26T13:39:35.485Z,99733.75
2019-05-26T13:42:10.708Z,99740.70
2019-05-26T13:44:43.184Z,99752.70
2019-05-26T13:47:25.666Z,99756.28
2019-05-26T13:49:54.405Z,99766.25
2019-05-26T13:52:31.542Z,99767.48
2019-05-26T13:55:07.504Z,99773.91
2019-05-26T13:57:41.629Z,99777.99
2019-05-26T14:00:17.509Z,99786.38
2019-05-26T14:02:51.625Z,99789.88
2019-05-26T14:05:25.914Z,99791.97
2019-05-26T14:07:58.424Z,99785.64
2019-05-26T14:10:33.515Z,99798.31
2019-05-26T14:13:07.086Z,99817.03
2019-05-26T14:15:40.577Z,99797.09
2019-05-26T14:18:12.954Z,99804.44
2019-05-26T14:20:45.277Z,99827.66
2019-05-26T14:23:17.598Z,99827.91
2019-05-26T14:25:49.826Z,99826.00
2019-05-26T14:28:25.598Z,99829.19
2019-05-26T14:31:00.850Z,99847.27
2019-05-26T14:33:33.450Z,99860.21
2019-05-26T14:36:09.731Z,99882.47
2019-05-26T14:38:43.869Z,99884.00
2019-05-26T14:41:16.225Z,99876.28
2019-05-26T14:43:50.156Z,99882.28
2019-05-26T14:46:22.381Z,99883.92
2019-05-26T14:48:54.609Z,99878.95
2019-05-26T14:51:28.030Z,99878.89
2019-05-26T14:54:00.307Z,99874.44
2019-05-26T14:56:32.472Z,99877.52
2019-05-26T14:59:04.873Z,99876.80
2019-05-26T15:01:39.536Z,99877.28
2019-05-26T15:04:12.162Z,99877.80
2019-05-26T15:06:44.407Z,99884.69
2019-05-26T15:09:25.228Z,99879.61
2019-05-26T15:11:50.643Z,99890.08
2019-05-26T15:14:22.947Z,99891.30
2019-05-26T15:16:55.118Z,99894.14
2019-05-26T15:19:27.518Z,99883.09
2019-05-26T15:21:59.884Z,99889.48
2019-05-26T15:24:33.809Z,99892.42
2019-05-26T15:27:06.127Z,99891.99
2019-05-26T15:29:38.410Z,99889.06
2019-05-26T15:32:11.692Z,99894.25
2019-05-26T15:34:45.595Z,99902.83
2019-05-26T15:37:17.806Z,99900.93
2019-05-26T15:39:50.251Z,99900.26
2019-05-26T15:42:22.489Z,99899.82
2019-05-26T15:44:54.761Z,99906.58
2019-05-26T15:47:28.366Z,99912.95
2019-05-26T15:50:00.661Z,99920.94
2019-05-26T15:52:33.309Z,99924.61
2019-05-26T15:55:08.024Z,99922.71
2019-05-26T15:57:40.517Z,99933.41
2019-05-26T16:00:12.826Z,99935.18
2019-05-26T16:02:45.124Z,99941.77
2019-05-26T16:05:17.426Z,99940.56
2019-05-26T16:07:49.651Z,99946.70
2019-05-26T16:10:21.972Z,99943.91
2019-05-26T16:12:54.244Z,99964.02
2019-05-26T16:15:27.705Z,99969.55
2019-05-26T16:18:03.945Z,99972.31
2019-05-26T16:20:37.474Z,99981.28
2019-05-26T16:23:09.719Z,99977.30
2019-05-26T16:25:42.582Z,99978.59
2019-05-26T16:28:14.862Z,99976.40
2019-05-26T16:30:47.243Z,99976.09
2019-05-26T16:33:19.424Z,99976.84
2019-05-26T16:35:55.467Z,99977.86
2019-05-26T16:38:28.583Z,99981.27
2019-05-26T16:41:00.996Z,99982.01
2019-05-26T16:43:34.777Z,99986.09
2019-05-26T16:46:07.138Z,99981.49
2019-05-26T16:48:41.036Z,99983.95
2019-05-26T16:51:14.872Z,99987.19
2019-05-26T16:53:47.208Z,99991.31
2019-05-26T16:56:21.207Z,99985.53
2019-05-26T16:58:54.981Z,99990.76
2019-05-26T17:01:27.385Z,99990.58
2019-05-26T17:04:01.208Z,99987.44
2019-05-26T17:06:36.551Z,99988.25
2019-05-26T17:09:09.168Z,99990.95
2019-05-26T17:11:41.591Z,100000.49
2019-05-26T17:14:14.037Z,99997.98
2019-05-26T17:16:46.358Z,100005.34
2019-05-26T17:19:18.743Z,100008.34
2019-05-26T17:21:51.374Z,100015.05
2019-05-26T17:24:24.781Z,100018.36
2019-05-26T17:26:58.751Z,100018.36
2019-05-26T17:29:31.143Z,100024.72
2019-05-26T17:32:05.120Z,100031.23
2019-05-26T17:34:37.921Z,100028.30
2019-05-26T17:37:11.091Z,100034.97
2019-05-26T17:39:43.560Z,100039.45
2019-05-26T17:42:16.071Z,100040.38
2019-05-26T17:44:48.508Z,100047.02
2019-05-26T17:47:30.186Z,100048.78
2019-05-26T17:49:57.339Z,100048.73
2019-05-26T17:52:32.556Z,100056.35
2019-05-26T17:55:08.214Z,100049.92
2019-05-26T17:57:41.139Z,100064.89
2019-05-26T18:00:14.595Z,100064.50
2019-05-26T18:02:47.320Z,100065.77
2019-05-26T18:05:19.775Z,100068.73
2019-05-26T18:07:52.286Z,100077.05
2019-05-26T18:10:24.761Z,100080.06
2019-05-26T18:12:57.324Z,100080.38
2019-05-26T18:15:29.801Z,100086.34
2019-05-26T18:18:02.392Z,100090.06
2019-05-26T18:20:34.847Z,100088.39
2019-05-26T18:23:09.781Z,100092.50
2019-05-26T18:25:43.987Z,100095.33
2019-05-26T18:28:16.852Z,100092.61
2019-05-26T18:30:50.748Z,100094.91
2019-05-26T18:33:23.297Z,100108.85
2019-05-26T18:35:55.683Z,100102.44
2019-05-26T18:38:28.192Z,100106.54
2019-05-26T18:41:03.661Z,100111.66
2019-05-26T18:43:36.166Z,100113.78
2019-05-26T18:46:08.671Z,100116.20
2019-05-26T18:48:43.350Z,100117.19
2019-05-26T18:51:16.235Z,100117.19
2019-05-26T18:53:52.948Z,100116.17
2019-05-26T18:56:26.567Z,100115.27
2019-05-26T18:58:59.079Z,100115.73
2019-05-26T19:01:31.542Z,100119.64
2019-05-26T19:04:04.168Z,100125.50
2019-05-26T19:06:37.580Z,100123.48
2019-05-26T19:09:10.489Z,100126.70
2019-05-26T19:11:42.935Z,100133.68
2019-05-26T19:14:16.659Z,100133.27
2019-05-26T19:16:50.151Z,100133.70
2019-05-26T19:19:23.044Z,100132.83
2019-05-26T19:21:55.607Z,100144.24
2019-05-26T19:24:28.257Z,100144.93
2019-05-26T19:27:01.394Z,100151.25
2019-05-26T19:29:34.128Z,100148.91
2019-05-26T19:32:06.580Z,100146.13
2019-05-26T19:34:39.214Z,100148.69
2019-05-26T19:37:11.693Z,100151.80
2019-05-26T19:39:45.322Z,100152.08
2019-05-26T19:42:20.330Z,100155.69
2019-05-26T19:44:52.919Z,100154.28
2019-05-26T19:47:29.595Z,100163.34
2019-05-26T19:50:02.064Z,100157.17
2019-05-26T19:52:36.895Z,100173.49
2019-05-26T19:55:12.176Z,100176.80
2019-05-26T19:57:44.834Z,100175.77
2019-05-26T20:00:19.207Z,100178.30
2019-05-26T20:02:53.524Z,100179.84
2019-05-26T20:05:27.198Z,100185.73
2019-05-26T20:07:59.809Z,100196.03
2019-05-26T20:10:33.218Z,100197.66
2019-05-26T20:13:05.934Z,100206.55
2019-05-26T20:15:40.053Z,100207.91
2019-05-26T20:18:12.671Z,100204.64
2019-05-26T20:20:46.712Z,100204.61
2019-05-26T20:23:19.288Z,100209.30
2019-05-26T20:25:53.665Z,100218.83
2019-05-26T20:28:26.754Z,100225.68
2019-05-26T20:30:59.262Z,100227.89
2019-05-26T20:33:31.783Z,100235.18
2019-05-26T20:36:04.433Z,100236.41
2019-05-26T20:38:37.065Z,100236.70
2019-05-26T20:41:09.525Z,100233.97
2019-05-26T20:43:42.188Z,100239.19
2019-05-26T20:46:14.722Z,100243.57
2019-05-26T20:48:47.263Z,100241.69
2019-05-26T20:51:23.640Z,100241.97
2019-05-26T20:53:56.232Z,100240.49
2019-05-26T20:56:28.691Z,100238.67
2019-05-26T20:59:01.276Z,100240.35
2019-05-26T21:01:33.662Z,100240.98
2019-05-26T21:04:06.224Z,100235.91
2019-05-26T21:06:38.594Z,100243.47
2019-05-26T21:09:11.673Z,100238.55
2019-05-26T21:11:44.401Z,100244.41
2019-05-26T21:14:16.987Z,100242.84
2019-05-26T21:16:49.377Z,100252.91
2019-05-26T21:19:21.902Z,100251.66
2019-05-26T21:21:54.368Z,100248.65
2019-05-26T21:24:26.970Z,100246.38
2019-05-26T21:26:59.422Z,100251.51
2019-05-26T21:29:31.966Z,100247.68
2019-05-26T21:32:04.353Z,100255.13
2019-05-26T21:34:36.858Z,100253.20
2019-05-26T21:37:09.261Z,100251.53
2019-05-26T21:39:41.782Z,100261.47
2019-05-26T21:42:16.109Z,100259.58
2019-05-26T21:44:48.365Z,100258.02
2019-05-26T21:47:21.963Z,100257.98
2019-05-26T21:49:54.567Z,100255.64
2019-05-26T21:52:27.027Z,100262.25
2019-05-26T21:54:59.577Z,100264.22
2019-05-26T21:57:31.967Z,100260.67
2019-05-26T22:00:13.917Z,100270.22
2019-05-26T22:02:47.663Z,100262.95
2019-05-26T22:05:20.242Z,100266.69
2019-05-26T22:07:53.618Z,100273.06
2019-05-26T22:10:27.557Z,100261.70
2019-05-26T22:13:00.006Z,100269.74
2019-05-26T22:15:32.566Z,100271.63
2019-05-26T22:18:04.982Z,100272.96
2019-05-26T22:20:37.550Z,100270.05
2019-05-26T22:23:10.025Z,100278.55
2019-05-26T22:25:42.601Z,100283.06
2019-05-26T22:28:15.041Z,100282.85
2019-05-26T22:30:47.617Z,100279.62
2019-05-26T22:33:20.048Z,100281.72
2019-05-26T22:35:52.682Z,100286.58
2019-05-26T22:38:25.059Z,100285.38
2019-05-26T22:40:57.665Z,100286.92
2019-05-26T22:43:30.151Z,100284.13
2019-05-26T22:46:02.680Z,100287.71
2019-05-26T22:48:35.123Z,100291.89
2019-05-26T22:51:07.810Z,100284.78
2019-05-26T22:53:40.206Z,100285.63
2019-05-26T22:56:12.720Z,100293.11
2019-05-26T22:58:45.162Z,100293.73
2019-05-26T23:01:17.820Z,100294.22
2019-05-26T23:03:50.191Z,100290.99
2019-05-26T23:06:22.883Z,100296.19
2019-05-26T23:08:55.349Z,100295.16
2019-05-26T23:11:28.095Z,100299.08
2019-05-26T23:14:00.572Z,100299.00
2019-05-26T23:16:33.164Z,100298.94
2019-05-26T23:19:18.250Z,100296.42
2019-05-26T23:21:39.884Z,100298.52
2019-05-26T23:24:13.564Z,100297.95
2019-05-26T23:26:46.183Z,100302.29
2019-05-26T23:29:18.609Z,100303.98
2019-05-26T23:31:51.231Z,100304.23
2019-05-26T23:34:24.730Z,100295.34
2019-05-26T23:36:57.249Z,100296.06
2019-05-26T23:39:29.727Z,100300.42
2019-05-26T23:42:02.227Z,100303.55
2019-05-26T23:44:34.654Z,100313.70
2019-05-26T23:47:07.400Z,100316.11
2019-05-26T23:49:39.795Z,100322.13
2019-05-26T23:52:12.475Z,100318.98
2019-05-26T23:54:44.874Z,100320.19
2019-05-26T23:57:17.383Z,100327.97
2019-05-26T23:59:49.752Z,100321.56
